createdAt,value
2018-06-11T00:01:30.276Z,20.36
2018-06-11T00:03:58.650Z,20.35
2018-06-11T00:06:27.003Z,20.37
2018-06-11T00:08:55.381Z,20.31
2018-06-11T00:11:23.828Z,20.26
2018-06-11T00:13:52.235Z,20.32
2018-06-11T00:16:20.583Z,20.29
2018-06-11T00:18:48.992Z,20.27
2018-06-11T00:21:17.390Z,20.30
2018-06-11T00:23:45.769Z,20.28
2018-06-11T00:26:14.199Z,20.25
2018-06-11T00:28:42.679Z,20.23
2018-06-11T00:31:11.100Z,20.18
2018-06-11T00:33:39.547Z,20.19
2018-06-11T00:36:08.015Z,20.12
2018-06-11T00:38:36.411Z,20.13
2018-06-11T00:41:04.851Z,20.10
2018-06-11T00:43:33.328Z,20.05
2018-06-11T00:46:01.782Z,20.06
2018-06-11T00:48:30.233Z,20.06
2018-06-11T00:50:58.758Z,20.04
2018-06-11T00:53:27.207Z,19.97
2018-06-11T00:56:07.755Z,20.01
2018-06-11T00:58:36.257Z,19.96
2018-06-11T01:01:05.132Z,19.89
2018-06-11T01:03:39.252Z,19.86
2018-06-11T01:06:08.183Z,19.86
2018-06-11T01:08:36.603Z,19.84
2018-06-11T01:11:05.170Z,19.84
2018-06-11T01:13:33.588Z,19.85
2018-06-11T01:16:02.028Z,19.80
2018-06-11T01:18:30.512Z,19.78
2018-06-11T01:20:58.970Z,19.77
2018-06-11T01:23:27.447Z,19.73
2018-06-11T01:25:56.011Z,19.74
2018-06-11T01:28:24.474Z,19.72
2018-06-11T01:30:52.894Z,19.73
2018-06-11T01:33:21.297Z,19.66
2018-06-11T01:35:49.709Z,19.66
2018-06-11T01:38:18.143Z,19.61
2018-06-11T01:40:46.580Z,19.58
2018-06-11T01:43:15.018Z,19.62
2018-06-11T01:45:43.492Z,19.56
2018-06-11T01:48:12.022Z,19.54
2018-06-11T01:50:40.462Z,19.55
2018-06-11T01:53:08.877Z,19.54
2018-06-11T01:55:37.337Z,19.47
2018-06-11T01:58:05.802Z,19.47
2018-06-11T02:00:34.225Z,19.49
2018-06-11T02:03:02.668Z,19.49
2018-06-11T02:05:31.082Z,19.47
2018-06-11T02:07:59.560Z,19.45
2018-06-11T02:10:28.489Z,19.45
2018-06-11T02:12:56.897Z,19.41
2018-06-11T02:15:25.278Z,19.36
2018-06-11T02:17:53.635Z,19.36
2018-06-11T02:20:22.076Z,19.35
2018-06-11T02:22:50.567Z,19.33
2018-06-11T02:25:18.991Z,19.22
2018-06-11T02:27:47.456Z,19.24
2018-06-11T02:30:15.859Z,19.22
2018-06-11T02:32:44.293Z,19.18
2018-06-11T02:35:12.683Z,19.18
2018-06-11T02:37:41.092Z,19.20
2018-06-11T02:40:09.477Z,19.17
2018-06-11T02:42:37.863Z,19.16
2018-06-11T02:45:06.575Z,19.14
2018-06-11T02:47:34.994Z,19.12
2018-06-11T02:50:03.405Z,19.11
2018-06-11T02:52:31.958Z,19.10
2018-06-11T02:55:00.365Z,19.11
2018-06-11T02:57:28.800Z,19.10
2018-06-11T02:59:57.261Z,19.12
2018-06-11T03:02:25.726Z,19.10
2018-06-11T03:04:54.120Z,19.16
2018-06-11T03:07:22.617Z,19.15
2018-06-11T03:09:51.046Z,19.15
2018-06-11T03:12:19.470Z,19.17
2018-06-11T03:14:47.947Z,19.16
2018-06-11T03:17:16.413Z,19.23
2018-06-11T03:19:44.777Z,19.26
2018-06-11T03:22:13.156Z,19.24
2018-06-11T03:24:41.580Z,19.25
2018-06-11T03:27:10.005Z,19.29
2018-06-11T03:29:38.393Z,19.30
2018-06-11T03:32:06.828Z,19.28
2018-06-11T03:34:35.325Z,19.31
2018-06-11T03:37:03.736Z,19.33
2018-06-11T03:39:32.163Z,19.33
2018-06-11T03:42:00.634Z,19.33
2018-06-11T03:44:29.124Z,19.38
2018-06-11T03:48:26.716Z,19.35
2018-06-11T03:50:55.139Z,19.39
2018-06-11T03:53:23.576Z,19.43
2018-06-11T03:55:52.014Z,19.44
2018-06-11T03:58:20.485Z,19.45
2018-06-11T04:00:48.996Z,19.45
2018-06-11T04:03:17.404Z,19.46
2018-06-11T04:05:45.825Z,19.47
2018-06-11T04:08:14.398Z,19.50
2018-06-11T04:10:42.842Z,19.54
2018-06-11T04:13:11.372Z,19.53
2018-06-11T04:15:40.796Z,19.56
2018-06-11T04:18:09.301Z,19.56
2018-06-11T04:20:37.827Z,19.54
2018-06-11T04:23:06.244Z,19.49
2018-06-11T04:25:34.691Z,19.51
2018-06-11T04:28:03.145Z,19.54
2018-06-11T04:30:32.465Z,19.50
2018-06-11T04:33:00.867Z,19.45
2018-06-11T04:35:29.333Z,19.49
2018-06-11T04:37:57.920Z,19.58
2018-06-11T04:40:26.387Z,19.54
2018-06-11T04:42:54.783Z,19.52
2018-06-11T04:45:23.248Z,19.49
2018-06-11T04:47:51.655Z,19.57
2018-06-11T04:50:20.084Z,19.55
2018-06-11T04:52:48.508Z,19.54
2018-06-11T04:55:16.988Z,19.56
2018-06-11T04:57:45.465Z,19.62
2018-06-11T05:00:13.945Z,19.65
2018-06-11T05:02:42.323Z,19.68
2018-06-11T05:05:10.808Z,19.76
2018-06-11T05:07:39.181Z,19.82
2018-06-11T05:10:07.597Z,19.93
2018-06-11T05:12:36.008Z,19.95
2018-06-11T05:15:04.477Z,20.02
2018-06-11T05:17:32.876Z,20.07
2018-06-11T05:20:01.312Z,20.14
2018-06-11T05:22:29.764Z,20.19
2018-06-11T05:24:58.188Z,20.23
2018-06-11T05:27:26.622Z,20.22
2018-06-11T05:29:54.983Z,20.27
2018-06-11T05:32:23.435Z,20.33
2018-06-11T05:34:51.928Z,20.32
2018-06-11T05:37:20.344Z,20.36
2018-06-11T05:39:48.733Z,20.37
2018-06-11T05:42:17.104Z,20.38
2018-06-11T05:44:45.954Z,20.41
2018-06-11T05:47:14.391Z,20.42
2018-06-11T05:49:42.810Z,20.42
2018-06-11T05:52:11.240Z,20.44
2018-06-11T05:54:39.653Z,20.45
2018-06-11T05:57:08.065Z,20.45
2018-06-11T05:59:36.493Z,20.47
2018-06-11T06:02:04.957Z,20.50
2018-06-11T06:04:33.369Z,20.58
2018-06-11T06:07:01.915Z,20.62
2018-06-11T06:09:30.349Z,20.67
2018-06-11T06:11:58.783Z,20.68
2018-06-11T06:14:27.231Z,20.73
2018-06-11T06:16:55.639Z,20.72
2018-06-11T06:19:24.019Z,20.70
2018-06-11T06:21:52.372Z,20.63
2018-06-11T06:24:20.751Z,20.73
2018-06-11T06:26:49.384Z,20.74
2018-06-11T06:29:17.791Z,20.76
2018-06-11T06:31:46.201Z,20.79
2018-06-11T06:34:14.690Z,20.84
2018-06-11T06:36:43.084Z,20.79
2018-06-11T06:39:12.611Z,20.85
2018-06-11T06:41:41.010Z,21.04
2018-06-11T06:44:09.471Z,20.97
2018-06-11T06:46:37.898Z,20.86
2018-06-11T06:49:06.276Z,20.88
2018-06-11T06:51:34.729Z,21.05
2018-06-11T06:54:03.168Z,21.03
2018-06-11T06:56:31.536Z,21.16
2018-06-11T06:58:59.904Z,21.38
2018-06-11T07:01:28.250Z,21.68
2018-06-11T07:03:56.740Z,21.81
2018-06-11T07:06:25.178Z,21.86
2018-06-11T07:08:53.596Z,22.03
2018-06-11T07:11:21.978Z,22.09
2018-06-11T07:13:50.376Z,22.34
2018-06-11T07:16:18.805Z,22.30
2018-06-11T07:18:47.289Z,22.41
2018-06-11T07:21:15.661Z,22.50
2018-06-11T07:23:44.057Z,22.47
2018-06-11T07:26:12.580Z,22.45
2018-06-11T07:28:41.032Z,22.35
2018-06-11T07:31:09.515Z,22.29
2018-06-11T07:33:37.961Z,22.51
2018-06-11T07:36:06.372Z,22.72
2018-06-11T07:38:34.855Z,22.91
2018-06-11T07:41:03.287Z,22.97
2018-06-11T07:43:31.679Z,23.00
2018-06-11T07:46:00.072Z,23.21
2018-06-11T07:48:28.505Z,23.49
2018-06-11T07:50:56.936Z,23.44
2018-06-11T07:53:25.330Z,23.62
2018-06-11T07:55:53.736Z,24.32
2018-06-11T07:58:22.264Z,24.15
2018-06-11T08:00:50.589Z,24.76
2018-06-11T08:03:18.950Z,25.01
2018-06-11T08:05:47.355Z,24.84
2018-06-11T08:08:15.752Z,24.54
2018-06-11T08:10:44.132Z,24.40
2018-06-11T08:13:12.466Z,24.26
2018-06-11T08:15:40.890Z,25.43
2018-06-11T08:18:09.259Z,26.30
2018-06-11T08:20:37.641Z,26.11
2018-06-11T08:23:06.251Z,26.26
2018-06-11T08:25:34.636Z,25.71
2018-06-11T08:28:03.630Z,26.31
2018-06-11T08:30:31.979Z,26.44
2018-06-11T08:33:00.352Z,27.30
2018-06-11T08:35:28.764Z,27.38
2018-06-11T08:37:57.099Z,27.86
2018-06-11T08:40:25.496Z,28.41
2018-06-11T08:42:53.842Z,28.84
2018-06-11T08:45:22.356Z,29.37
2018-06-11T08:47:50.704Z,29.03
2018-06-11T08:50:19.088Z,29.40
2018-06-11T08:52:47.452Z,29.04
2018-06-11T08:55:15.803Z,28.76
2018-06-11T08:57:44.174Z,29.29
2018-06-11T09:00:12.603Z,30.51
2018-06-11T09:02:40.981Z,29.80
2018-06-11T09:05:09.404Z,30.00
2018-06-11T09:07:37.763Z,28.93
2018-06-11T09:10:06.117Z,29.64
2018-06-11T09:12:34.465Z,29.74
2018-06-11T09:15:03.786Z,29.10
2018-06-11T09:17:32.251Z,29.53
2018-06-11T09:20:00.631Z,29.15
2018-06-11T09:22:29.477Z,29.19
2018-06-11T09:24:57.873Z,28.55
2018-06-11T09:27:26.200Z,27.98
2018-06-11T09:29:54.545Z,27.68
2018-06-11T09:32:22.959Z,28.71
2018-06-11T09:34:51.611Z,29.89
2018-06-11T09:37:19.955Z,29.75
2018-06-11T09:39:48.309Z,30.06
2018-06-11T09:42:16.656Z,30.94
2018-06-11T09:44:45.028Z,30.72
2018-06-11T09:47:13.427Z,29.29
2018-06-11T09:49:41.919Z,28.83
2018-06-11T09:52:10.316Z,28.60
2018-06-11T09:54:38.702Z,28.55
2018-06-11T09:57:07.467Z,30.11
2018-06-11T09:59:35.810Z,30.84
2018-06-11T10:02:04.154Z,32.47
2018-06-11T10:04:32.536Z,31.98
2018-06-11T10:07:00.915Z,31.29
2018-06-11T10:09:29.401Z,30.61
2018-06-11T10:11:57.796Z,29.96
2018-06-11T10:14:26.165Z,29.02
2018-06-11T10:16:54.544Z,30.02
2018-06-11T10:19:22.911Z,30.60
2018-06-11T10:21:51.302Z,31.08
2018-06-11T10:24:19.651Z,31.59
2018-06-11T10:26:48.056Z,30.66
2018-06-11T10:29:16.442Z,29.92
2018-06-11T10:31:44.828Z,29.88
2018-06-11T10:34:13.987Z,30.72
2018-06-11T10:36:42.726Z,30.40
2018-06-11T10:39:11.233Z,31.41
2018-06-11T10:41:39.589Z,30.62
2018-06-11T10:44:07.959Z,31.71
2018-06-11T10:46:36.320Z,31.35
2018-06-11T10:49:04.763Z,31.02
2018-06-11T10:51:33.149Z,30.65
2018-06-11T10:54:01.565Z,30.52
2018-06-11T10:56:29.952Z,30.07
2018-06-11T10:58:58.311Z,29.02
2018-06-11T11:01:26.695Z,29.76
2018-06-11T11:03:55.051Z,29.50
2018-06-11T11:06:23.530Z,28.84
2018-06-11T11:08:52.065Z,28.50
2018-06-11T11:11:20.517Z,28.18
2018-06-11T11:13:48.968Z,27.77
2018-06-11T11:16:17.413Z,27.38
2018-06-11T11:18:45.801Z,27.05
2018-06-11T11:21:14.412Z,26.65
2018-06-11T11:23:43.482Z,26.41
2018-06-11T11:26:12.367Z,26.25
2018-06-11T11:28:40.873Z,26.36
2018-06-11T11:31:09.280Z,26.13
2018-06-11T11:33:37.727Z,25.82
2018-06-11T11:36:06.127Z,25.70
2018-06-11T11:38:34.488Z,25.81
2018-06-11T11:41:02.913Z,25.68
2018-06-11T11:43:31.369Z,25.32
2018-06-11T11:45:59.743Z,25.41
2018-06-11T11:48:28.109Z,25.45
2018-06-11T11:50:56.477Z,25.21
2018-06-11T11:53:24.847Z,25.18
2018-06-11T11:55:53.199Z,24.86
2018-06-11T11:58:21.570Z,24.78
2018-06-11T12:00:49.971Z,24.89
2018-06-11T12:03:18.397Z,24.81
2018-06-11T12:05:46.781Z,24.63
2018-06-11T12:08:15.126Z,24.75
2018-06-11T12:10:43.520Z,24.72
2018-06-11T12:13:11.891Z,24.75
2018-06-11T12:15:40.357Z,24.71
2018-06-11T12:18:08.735Z,24.66
2018-06-11T12:20:37.107Z,24.75
2018-06-11T12:23:05.529Z,24.61
2018-06-11T12:25:33.945Z,24.65
2018-06-11T12:28:02.677Z,24.58
2018-06-11T12:30:31.071Z,24.54
2018-06-11T12:32:59.461Z,24.54
2018-06-11T12:35:27.899Z,24.48
2018-06-11T12:37:56.298Z,24.51
2018-06-11T12:40:24.717Z,24.41
2018-06-11T12:42:53.092Z,24.54
2018-06-11T12:45:21.545Z,24.45
2018-06-11T12:47:49.896Z,24.53
2018-06-11T12:50:18.300Z,24.45
2018-06-11T12:52:46.730Z,24.51
2018-06-11T12:55:15.113Z,24.50
2018-06-11T12:57:43.503Z,24.61
2018-06-11T13:00:11.866Z,24.51
2018-06-11T13:02:40.211Z,24.45
2018-06-11T13:05:08.604Z,24.48
2018-06-11T13:07:36.977Z,24.50
2018-06-11T13:10:05.329Z,24.50
2018-06-11T13:12:33.697Z,24.54
2018-06-11T13:15:02.078Z,24.56
2018-06-11T13:17:30.559Z,24.62
2018-06-11T13:19:59.004Z,24.58
2018-06-11T13:22:27.428Z,24.59
2018-06-11T13:24:55.938Z,24.62
2018-06-11T13:27:24.308Z,24.60
2018-06-11T13:29:52.689Z,24.52
2018-06-11T13:32:21.240Z,24.52
2018-06-11T13:34:49.720Z,24.49
2018-06-11T13:37:18.100Z,24.46
2018-06-11T13:39:46.580Z,24.44
2018-06-11T13:42:15.000Z,24.47
2018-06-11T13:44:43.466Z,24.46
2018-06-11T13:47:11.956Z,24.46
2018-06-11T13:49:40.400Z,24.47
2018-06-11T13:52:08.748Z,24.47
2018-06-11T13:54:37.122Z,24.35
2018-06-11T13:57:05.603Z,24.36
2018-06-11T13:59:33.926Z,24.31
2018-06-11T14:02:02.269Z,24.35
2018-06-11T14:04:30.633Z,24.33
2018-06-11T14:06:59.089Z,24.34
2018-06-11T14:09:27.520Z,24.39
2018-06-11T14:11:55.982Z,24.49
2018-06-11T14:14:24.402Z,24.51
2018-06-11T14:16:52.898Z,24.46
2018-06-11T14:19:21.417Z,24.46
2018-06-11T14:21:49.822Z,24.50
2018-06-11T14:24:18.229Z,24.45
2018-06-11T14:26:46.677Z,24.47
2018-06-11T14:29:15.945Z,24.50
2018-06-11T14:31:44.418Z,24.51
2018-06-11T14:34:12.841Z,24.51
2018-06-11T14:36:41.204Z,24.50
2018-06-11T14:39:09.799Z,24.53
2018-06-11T14:41:38.192Z,24.55
2018-06-11T14:44:06.562Z,24.58
2018-06-11T14:46:35.033Z,24.58
2018-06-11T14:49:03.445Z,24.59
2018-06-11T14:51:31.791Z,24.54
2018-06-11T14:54:00.175Z,24.51
2018-06-11T14:56:28.615Z,24.50
2018-06-11T14:58:56.983Z,24.54
2018-06-11T15:01:25.348Z,24.52
2018-06-11T15:03:53.799Z,24.52
2018-06-11T15:06:22.170Z,24.51
2018-06-11T15:08:50.523Z,24.54
2018-06-11T15:11:18.875Z,24.53
2018-06-11T15:13:47.263Z,24.49
2018-06-11T15:16:15.658Z,24.49
2018-06-11T15:18:44.021Z,24.44
2018-06-11T15:21:12.416Z,24.46
2018-06-11T15:23:40.823Z,24.46
2018-06-11T15:26:09.224Z,24.48
2018-06-11T15:28:37.588Z,24.48
2018-06-11T15:31:05.930Z,24.47
2018-06-11T15:33:34.259Z,24.48
2018-06-11T15:36:02.620Z,24.43
2018-06-11T15:38:30.991Z,24.47
2018-06-11T15:40:59.369Z,24.46
2018-06-11T15:43:27.723Z,24.47
2018-06-11T15:45:56.104Z,24.47
2018-06-11T15:48:24.516Z,24.46
2018-06-11T15:50:53.027Z,24.43
2018-06-11T15:53:22.511Z,24.40
2018-06-11T15:55:50.921Z,24.40
2018-06-11T15:58:19.327Z,24.40
2018-06-11T16:00:47.794Z,24.38
2018-06-11T16:03:16.277Z,24.35
2018-06-11T16:05:44.645Z,24.34
2018-06-11T16:08:13.020Z,24.31
2018-06-11T16:10:41.399Z,24.30
2018-06-11T16:13:09.787Z,24.23
2018-06-11T16:15:38.202Z,24.20
2018-06-11T16:18:06.578Z,24.23
2018-06-11T16:20:34.944Z,24.18
2018-06-11T16:23:03.326Z,24.19
2018-06-11T16:25:31.782Z,24.13
2018-06-11T16:28:00.151Z,24.11
2018-06-11T16:30:28.506Z,24.09
2018-06-11T16:32:56.951Z,24.10
2018-06-11T16:35:25.376Z,24.07
2018-06-11T16:37:53.717Z,24.04
2018-06-11T16:40:22.072Z,24.05
2018-06-11T16:42:50.588Z,24.04
2018-06-11T16:45:18.988Z,24.02
2018-06-11T16:47:47.390Z,24.02
2018-06-11T16:50:15.754Z,23.99
2018-06-11T16:52:44.147Z,24.00
2018-06-11T16:55:12.623Z,23.97
2018-06-11T16:57:41.051Z,23.97
2018-06-11T17:00:09.529Z,23.92
2018-06-11T17:02:38.022Z,23.94
2018-06-11T17:05:06.871Z,23.97
2018-06-11T17:07:35.447Z,23.95
2018-06-11T17:10:03.908Z,23.95
2018-06-11T17:12:32.337Z,23.93
2018-06-11T17:15:00.850Z,23.87
2018-06-11T17:17:29.347Z,23.85
2018-06-11T17:19:57.814Z,23.82
2018-06-11T17:22:26.278Z,23.83
2018-06-11T17:24:54.898Z,23.81
2018-06-11T17:27:23.323Z,23.81
2018-06-11T17:29:51.758Z,23.79
2018-06-11T17:32:20.155Z,23.75
2018-06-11T17:34:48.620Z,23.76
2018-06-11T17:37:17.054Z,23.72
2018-06-11T17:39:45.478Z,23.67
2018-06-11T17:42:13.979Z,23.59
2018-06-11T17:44:42.400Z,23.59
2018-06-11T17:47:10.965Z,23.53
2018-06-11T17:49:39.543Z,23.55
2018-06-11T17:52:08.103Z,23.51
2018-06-11T17:54:36.547Z,23.48
2018-06-11T17:57:05.059Z,23.49
2018-06-11T17:59:33.491Z,23.48
2018-06-11T18:02:01.878Z,23.46
2018-06-11T18:04:30.287Z,23.37
2018-06-11T18:06:58.632Z,23.34
2018-06-11T18:09:27.022Z,23.30
2018-06-11T18:11:55.441Z,23.25
2018-06-11T18:14:23.773Z,23.22
2018-06-11T18:16:52.135Z,23.22
2018-06-11T18:19:20.488Z,23.18
2018-06-11T18:21:48.847Z,23.15
2018-06-11T18:24:17.202Z,23.13
2018-06-11T18:26:45.636Z,23.06
2018-06-11T18:29:14.052Z,23.10
2018-06-11T18:31:42.493Z,23.09
2018-06-11T18:34:10.868Z,23.06
2018-06-11T18:36:39.215Z,23.06
2018-06-11T18:39:08.985Z,23.04
2018-06-11T18:41:37.555Z,23.01
2018-06-11T18:44:06.052Z,22.96
2018-06-11T18:46:34.595Z,22.93
2018-06-11T18:49:03.015Z,22.93
2018-06-11T18:51:31.395Z,22.87
2018-06-11T18:54:00.400Z,22.82
2018-06-11T18:56:28.807Z,22.80
2018-06-11T18:58:57.190Z,22.80
2018-06-11T19:01:25.556Z,22.80
2018-06-11T19:03:53.928Z,22.78
2018-06-11T19:06:22.397Z,22.74
2018-06-11T19:08:50.771Z,22.69
2018-06-11T19:11:19.156Z,22.69
2018-06-11T19:13:47.579Z,22.65
2018-06-11T19:16:15.987Z,22.64
2018-06-11T19:18:44.397Z,22.63
2018-06-11T19:21:12.815Z,22.58
2018-06-11T19:23:41.188Z,22.54
2018-06-11T19:26:09.603Z,22.49
2018-06-11T19:28:45.706Z,22.47
2018-06-11T19:31:18.440Z,22.46
2018-06-11T19:33:48.669Z,22.47
2018-06-11T19:36:17.555Z,22.40
2018-06-11T19:38:51.356Z,22.37
2018-06-11T19:41:19.874Z,22.32
2018-06-11T19:43:48.280Z,22.31
2018-06-11T19:46:23.581Z,22.31
2018-06-11T19:48:59.259Z,22.30
2018-06-11T19:51:34.904Z,22.28
2018-06-11T19:54:07.844Z,22.26
2018-06-11T19:56:38.964Z,22.22
2018-06-11T19:59:07.715Z,22.19
2018-06-11T20:01:39.096Z,22.18
2018-06-11T20:04:11.374Z,22.13
2018-06-11T20:06:47.008Z,22.12
2018-06-11T20:09:16.084Z,22.10
2018-06-11T20:11:50.284Z,22.04
2018-06-11T20:14:18.756Z,22.05
2018-06-11T20:16:47.138Z,22.03
2018-06-11T20:22:02.021Z,21.96
2018-06-11T20:25:06.034Z,21.94
2018-06-11T20:30:02.086Z,21.86
2018-06-11T20:32:31.325Z,21.82
2018-06-11T20:35:00.131Z,21.78
2018-06-11T20:37:28.667Z,21.73
2018-06-11T20:39:57.118Z,21.73
2018-06-11T20:42:25.517Z,21.70
2018-06-11T20:44:54.640Z,21.68
2018-06-11T20:47:23.073Z,21.66
2018-06-11T20:49:51.555Z,21.65
2018-06-11T20:52:20.065Z,21.63
2018-06-11T20:54:48.632Z,21.58
2018-06-11T20:57:17.519Z,21.57
2018-06-11T20:59:46.025Z,21.54
2018-06-11T21:02:14.998Z,21.51
2018-06-11T21:04:43.468Z,21.47
2018-06-11T21:07:12.298Z,21.43
2018-06-11T21:09:40.732Z,21.39
2018-06-11T21:12:09.138Z,21.36
2018-06-11T21:14:38.285Z,21.30
2018-06-11T21:17:06.766Z,21.28
2018-06-11T21:19:35.397Z,21.24
2018-06-11T21:22:04.089Z,21.19
2018-06-11T21:24:32.493Z,21.18
2018-06-11T21:27:00.939Z,21.17
2018-06-11T21:29:29.717Z,21.15
2018-06-11T21:31:58.528Z,21.14
2018-06-11T21:34:26.993Z,21.12
2018-06-11T21:36:55.756Z,21.12
2018-06-11T21:39:24.263Z,21.06
2018-06-11T21:41:53.251Z,21.07
2018-06-11T21:44:21.752Z,21.07
2018-06-11T21:46:50.233Z,21.04
2018-06-11T21:49:18.633Z,21.00
2018-06-11T21:51:47.027Z,20.98
2018-06-11T21:54:17.002Z,20.93
2018-06-11T21:56:53.685Z,20.89
2018-06-11T21:59:23.511Z,20.86
2018-06-11T22:01:53.035Z,20.81
2018-06-11T22:04:21.626Z,20.79
2018-06-11T22:06:50.053Z,20.74
2018-06-11T22:09:18.464Z,20.73
2018-06-11T22:11:48.156Z,20.70
2018-06-11T22:14:21.126Z,20.67
2018-06-11T22:16:50.028Z,20.64
2018-06-11T22:19:18.515Z,20.59
2018-06-11T22:21:46.978Z,20.61
2018-06-11T22:24:15.364Z,20.59
2018-06-11T22:26:44.169Z,20.56
2018-06-11T22:29:12.629Z,20.56
2018-06-11T22:31:41.064Z,20.53
2018-06-11T22:34:09.470Z,20.47
2018-06-11T22:36:37.889Z,20.41
2018-06-11T22:39:07.928Z,20.41
2018-06-11T22:41:36.528Z,20.42
2018-06-11T22:44:05.047Z,20.38
2018-06-11T22:46:33.465Z,20.36
2018-06-11T22:49:01.967Z,20.29
2018-06-11T22:51:30.635Z,20.26
2018-06-11T22:53:59.158Z,20.23
2018-06-11T22:56:27.681Z,20.23
2018-06-11T22:58:56.190Z,20.17
2018-06-11T23:01:24.630Z,20.17
2018-06-11T23:03:53.070Z,20.11
2018-06-11T23:06:21.600Z,20.10
2018-06-11T23:08:50.017Z,20.08
2018-06-11T23:11:18.450Z,20.05
2018-06-11T23:13:46.946Z,20.04
2018-06-11T23:16:15.491Z,19.98
2018-06-11T23:18:44.053Z,19.95
2018-06-11T23:21:12.503Z,19.93
2018-06-11T23:23:41.122Z,19.92
2018-06-11T23:26:09.653Z,19.87
2018-06-11T23:28:38.164Z,19.86
2018-06-11T23:31:06.634Z,19.75
2018-06-11T23:33:35.129Z,19.76
2018-06-11T23:36:03.648Z,19.73
2018-06-11T23:38:32.093Z,19.72
2018-06-11T23:41:00.532Z,19.68
2018-06-11T23:43:28.968Z,19.65
2018-06-11T23:45:57.499Z,19.63
2018-06-11T23:48:25.968Z,19.58
2018-06-11T23:50:54.419Z,19.52
2018-06-11T23:53:22.873Z,19.46
2018-06-11T23:55:51.380Z,19.45
2018-06-11T23:58:19.912Z,19.39
